sensor_id;sensor_type;location;lat;lon;timestamp;P1;durP1;ratioP1;P2;durP2;ratioP2
70444;SDS011;57902;49.638;11.070;2024-01-06T00:00:04;6.32;;;2.80;;
70444;SDS011;57902;49.638;11.070;2024-01-06T00:02:31;12.30;;;3.35;;
70444;SDS011;57902;49.638;11.070;2024-01-06T00:04:58;11.32;;;3.40;;
70444;SDS011;57902;49.638;11.070;2024-01-06T00:07:24;11.30;;;3.25;;
70444;SDS011;57902;49.638;11.070;2024-01-06T00:09:51;11.13;;;3.55;;
70444;SDS011;57902;49.638;11.070;2024-01-06T00:12:17;11.32;;;4.13;;
70444;SDS011;57902;49.638;11.070;2024-01-06T00:14:45;11.55;;;3.95;;
70444;SDS011;57902;49.638;11.070;2024-01-06T00:17:11;11.07;;;4.00;;
70444;SDS011;57902;49.638;11.070;2024-01-06T00:19:38;10.77;;;4.07;;
70444;SDS011;57902;49.638;11.070;2024-01-06T00:22:05;10.27;;;4.07;;
70444;SDS011;57902;49.638;11.070;2024-01-06T00:24:31;9.57;;;3.85;;
70444;SDS011;57902;49.638;11.070;2024-01-06T00:26:58;10.48;;;3.85;;
70444;SDS011;57902;49.638;11.070;2024-01-06T00:29:24;9.88;;;3.70;;
70444;SDS011;57902;49.638;11.070;2024-01-06T00:31:51;8.02;;;3.08;;
70444;SDS011;57902;49.638;11.070;2024-01-06T00:34:17;9.15;;;3.50;;
70444;SDS011;57902;49.638;11.070;2024-01-06T00:36:44;9.35;;;3.60;;
70444;SDS011;57902;49.638;11.070;2024-01-06T00:39:11;10.52;;;3.42;;
70444;SDS011;57902;49.638;11.070;2024-01-06T00:41:37;13.77;;;4.57;;
70444;SDS011;57902;49.638;11.070;2024-01-06T00:44:04;13.35;;;4.03;;
70444;SDS011;57902;49.638;11.070;2024-01-06T00:46:30;15.10;;;4.05;;
70444;SDS011;57902;49.638;11.070;2024-01-06T00:48:57;8.43;;;3.20;;
70444;SDS011;57902;49.638;11.070;2024-01-06T00:51:23;11.88;;;3.83;;
70444;SDS011;57902;49.638;11.070;2024-01-06T00:53:50;8.85;;;3.47;;
70444;SDS011;57902;49.638;11.070;2024-01-06T00:56:16;9.20;;;4.07;;
70444;SDS011;57902;49.638;11.070;2024-01-06T00:58:43;8.13;;;3.42;;
70444;SDS011;57902;49.638;11.070;2024-01-06T01:01:09;7.90;;;3.63;;
70444;SDS011;57902;49.638;11.070;2024-01-06T01:03:36;7.25;;;3.30;;
70444;SDS011;57902;49.638;11.070;2024-01-06T01:06:03;8.30;;;3.50;;
70444;SDS011;57902;49.638;11.070;2024-01-06T01:08:30;10.25;;;3.08;;
70444;SDS011;57902;49.638;11.070;2024-01-06T01:10:57;9.70;;;3.45;;
70444;SDS011;57902;49.638;11.070;2024-01-06T01:13:23;8.10;;;3.63;;
70444;SDS011;57902;49.638;11.070;2024-01-06T01:15:50;8.50;;;3.90;;
70444;SDS011;57902;49.638;11.070;2024-01-06T01:18:16;9.18;;;3.83;;
70444;SDS011;57902;49.638;11.070;2024-01-06T01:20:43;9.35;;;3.78;;
70444;SDS011;57902;49.638;11.070;2024-01-06T01:23:09;8.00;;;4.00;;
70444;SDS011;57902;49.638;11.070;2024-01-06T01:25:36;11.18;;;4.80;;
70444;SDS011;57902;49.638;11.070;2024-01-06T01:28:03;8.63;;;3.65;;
70444;SDS011;57902;49.638;11.070;2024-01-06T01:30:29;10.15;;;4.00;;
70444;SDS011;57902;49.638;11.070;2024-01-06T01:32:56;9.85;;;3.70;;
70444;SDS011;57902;49.638;11.070;2024-01-06T01:35:23;8.38;;;3.70;;
70444;SDS011;57902;49.638;11.070;2024-01-06T01:37:50;8.57;;;3.65;;
70444;SDS011;57902;49.638;11.070;2024-01-06T01:40:16;9.85;;;3.90;;
70444;SDS011;57902;49.638;11.070;2024-01-06T01:42:43;8.85;;;3.47;;
70444;SDS011;57902;49.638;11.070;2024-01-06T01:45:09;8.48;;;3.72;;
70444;SDS011;57902;49.638;11.070;2024-01-06T01:47:38;7.90;;;3.88;;
70444;SDS011;57902;49.638;11.070;2024-01-06T01:50:06;9.35;;;4.10;;
70444;SDS011;57902;49.638;11.070;2024-01-06T01:52:35;11.90;;;4.50;;
70444;SDS011;57902;49.638;11.070;2024-01-06T01:57:29;9.32;;;4.40;;
70444;SDS011;57902;49.638;11.070;2024-01-06T01:59:56;10.57;;;4.78;;
70444;SDS011;57902;49.638;11.070;2024-01-06T02:02:23;9.45;;;4.25;;
70444;SDS011;57902;49.638;11.070;2024-01-06T02:04:50;13.95;;;4.50;;
70444;SDS011;57902;49.638;11.070;2024-01-06T02:07:17;11.65;;;4.30;;
70444;SDS011;57902;49.638;11.070;2024-01-06T02:09:43;9.30;;;4.20;;
70444;SDS011;57902;49.638;11.070;2024-01-06T02:12:10;7.63;;;3.90;;
70444;SDS011;57902;49.638;11.070;2024-01-06T02:14:37;8.13;;;3.95;;
70444;SDS011;57902;49.638;11.070;2024-01-06T02:17:03;12.73;;;3.83;;
70444;SDS011;57902;49.638;11.070;2024-01-06T02:19:30;10.73;;;3.92;;
70444;SDS011;57902;49.638;11.070;2024-01-06T02:21:57;8.43;;;3.90;;
70444;SDS011;57902;49.638;11.070;2024-01-06T02:24:23;9.35;;;4.10;;
70444;SDS011;57902;49.638;11.070;2024-01-06T02:26:50;12.18;;;4.40;;
70444;SDS011;57902;49.638;11.070;2024-01-06T02:29:17;13.18;;;4.93;;
70444;SDS011;57902;49.638;11.070;2024-01-06T02:31:43;13.23;;;4.88;;
70444;SDS011;57902;49.638;11.070;2024-01-06T02:34:10;16.75;;;5.68;;
70444;SDS011;57902;49.638;11.070;2024-01-06T02:36:37;13.50;;;4.82;;
70444;SDS011;57902;49.638;11.070;2024-01-06T02:39:03;14.18;;;5.38;;
70444;SDS011;57902;49.638;11.070;2024-01-06T02:41:30;10.65;;;4.63;;
70444;SDS011;57902;49.638;11.070;2024-01-06T02:43:57;13.63;;;4.82;;
70444;SDS011;57902;49.638;11.070;2024-01-06T02:46:23;12.07;;;4.55;;
70444;SDS011;57902;49.638;11.070;2024-01-06T02:48:50;10.77;;;4.57;;
70444;SDS011;57902;49.638;11.070;2024-01-06T02:51:17;8.48;;;3.78;;
70444;SDS011;57902;49.638;11.070;2024-01-06T02:53:43;9.68;;;3.88;;
70444;SDS011;57902;49.638;11.070;2024-01-06T02:56:10;10.00;;;4.10;;
70444;SDS011;57902;49.638;11.070;2024-01-06T02:58:37;10.35;;;4.13;;
70444;SDS011;57902;49.638;11.070;2024-01-06T03:01:05;10.25;;;3.90;;
70444;SDS011;57902;49.638;11.070;2024-01-06T03:03:31;8.68;;;3.70;;
70444;SDS011;57902;49.638;11.070;2024-01-06T03:05:58;9.52;;;3.72;;
70444;SDS011;57902;49.638;11.070;2024-01-06T03:08:25;9.18;;;3.63;;
70444;SDS011;57902;49.638;11.070;2024-01-06T03:10:51;9.05;;;4.05;;
70444;SDS011;57902;49.638;11.070;2024-01-06T03:13:18;11.93;;;3.50;;
70444;SDS011;57902;49.638;11.070;2024-01-06T03:15:44;9.35;;;3.90;;
70444;SDS011;57902;49.638;11.070;2024-01-06T03:18:12;8.95;;;3.88;;
70444;SDS011;57902;49.638;11.070;2024-01-06T03:20:38;10.13;;;4.35;;
70444;SDS011;57902;49.638;11.070;2024-01-06T03:23:05;12.50;;;4.05;;
70444;SDS011;57902;49.638;11.070;2024-01-06T03:25:31;8.93;;;3.40;;
70444;SDS011;57902;49.638;11.070;2024-01-06T03:27:58;8.98;;;4.10;;
70444;SDS011;57902;49.638;11.070;2024-01-06T03:30:25;8.63;;;4.03;;
70444;SDS011;57902;49.638;11.070;2024-01-06T03:32:51;9.13;;;3.80;;
70444;SDS011;57902;49.638;11.070;2024-01-06T03:35:18;8.75;;;3.35;;
70444;SDS011;57902;49.638;11.070;2024-01-06T03:37:44;9.10;;;3.85;;
70444;SDS011;57902;49.638;11.070;2024-01-06T03:40:11;9.20;;;3.78;;
70444;SDS011;57902;49.638;11.070;2024-01-06T03:42:38;10.75;;;4.13;;
70444;SDS011;57902;49.638;11.070;2024-01-06T03:45:05;10.73;;;4.65;;
70444;SDS011;57902;49.638;11.070;2024-01-06T03:47:31;9.90;;;4.35;;
70444;SDS011;57902;49.638;11.070;2024-01-06T03:49:58;12.48;;;4.80;;
70444;SDS011;57902;49.638;11.070;2024-01-06T03:52:25;11.65;;;5.10;;
70444;SDS011;57902;49.638;11.070;2024-01-06T03:54:51;12.13;;;4.97;;
70444;SDS011;57902;49.638;11.070;2024-01-06T03:57:18;10.38;;;4.78;;
70444;SDS011;57902;49.638;11.070;2024-01-06T03:59:45;11.32;;;4.93;;
70444;SDS011;57902;49.638;11.070;2024-01-06T04:02:11;9.63;;;4.43;;
70444;SDS011;57902;49.638;11.070;2024-01-06T04:04:38;9.13;;;4.70;;
70444;SDS011;57902;49.638;11.070;2024-01-06T04:07:05;12.73;;;5.00;;
70444;SDS011;57902;49.638;11.070;2024-01-06T04:09:33;9.77;;;4.63;;
70444;SDS011;57902;49.638;11.070;2024-01-06T04:11:59;9.55;;;4.35;;
70444;SDS011;57902;49.638;11.070;2024-01-06T04:14:27;9.93;;;4.30;;
70444;SDS011;57902;49.638;11.070;2024-01-06T04:16:54;9.60;;;4.63;;
70444;SDS011;57902;49.638;11.070;2024-01-06T04:19:23;9.07;;;4.68;;
70444;SDS011;57902;49.638;11.070;2024-01-06T04:21:50;8.55;;;3.92;;
70444;SDS011;57902;49.638;11.070;2024-01-06T04:24:17;10.20;;;4.43;;
70444;SDS011;57902;49.638;11.070;2024-01-06T04:26:44;12.40;;;4.72;;
70444;SDS011;57902;49.638;11.070;2024-01-06T04:29:11;10.52;;;4.18;;
70444;SDS011;57902;49.638;11.070;2024-01-06T04:31:39;11.63;;;4.45;;
70444;SDS011;57902;49.638;11.070;2024-01-06T04:34:07;11.73;;;4.38;;
70444;SDS011;57902;49.638;11.070;2024-01-06T04:36:34;9.18;;;4.30;;
70444;SDS011;57902;49.638;11.070;2024-01-06T04:39:00;12.02;;;4.18;;
70444;SDS011;57902;49.638;11.070;2024-01-06T04:41:27;10.80;;;4.25;;
70444;SDS011;57902;49.638;11.070;2024-01-06T04:43:54;8.90;;;4.50;;
70444;SDS011;57902;49.638;11.070;2024-01-06T04:46:20;10.02;;;4.40;;
70444;SDS011;57902;49.638;11.070;2024-01-06T04:48:47;10.27;;;4.18;;
70444;SDS011;57902;49.638;11.070;2024-01-06T04:51:13;10.68;;;4.55;;
70444;SDS011;57902;49.638;11.070;2024-01-06T04:53:41;11.68;;;4.50;;
70444;SDS011;57902;49.638;11.070;2024-01-06T04:56:07;12.65;;;4.35;;
70444;SDS011;57902;49.638;11.070;2024-01-06T04:58:34;10.75;;;4.35;;
70444;SDS011;57902;49.638;11.070;2024-01-06T05:01:01;10.07;;;4.28;;
70444;SDS011;57902;49.638;11.070;2024-01-06T05:03:28;10.35;;;4.10;;
70444;SDS011;57902;49.638;11.070;2024-01-06T05:05:55;9.23;;;3.88;;
70444;SDS011;57902;49.638;11.070;2024-01-06T05:08:22;9.40;;;3.75;;
70444;SDS011;57902;49.638;11.070;2024-01-06T05:10:49;10.13;;;3.97;;
70444;SDS011;57902;49.638;11.070;2024-01-06T05:13:15;10.82;;;4.10;;
70444;SDS011;57902;49.638;11.070;2024-01-06T05:15:43;9.40;;;3.80;;
70444;SDS011;57902;49.638;11.070;2024-01-06T05:18:10;10.07;;;3.92;;
70444;SDS011;57902;49.638;11.070;2024-01-06T05:20:37;9.43;;;3.72;;
70444;SDS011;57902;49.638;11.070;2024-01-06T05:23:04;9.00;;;3.95;;
70444;SDS011;57902;49.638;11.070;2024-01-06T05:25:30;7.28;;;3.45;;
70444;SDS011;57902;49.638;11.070;2024-01-06T05:27:57;8.88;;;3.60;;
70444;SDS011;57902;49.638;11.070;2024-01-06T05:30:23;9.05;;;3.60;;
70444;SDS011;57902;49.638;11.070;2024-01-06T05:32:50;8.48;;;3.65;;
70444;SDS011;57902;49.638;11.070;2024-01-06T05:35:17;8.60;;;3.50;;
70444;SDS011;57902;49.638;11.070;2024-01-06T05:37:43;8.07;;;3.53;;
70444;SDS011;57902;49.638;11.070;2024-01-06T05:40:10;8.48;;;3.60;;
70444;SDS011;57902;49.638;11.070;2024-01-06T05:42:38;10.93;;;3.72;;
70444;SDS011;57902;49.638;11.070;2024-01-06T05:45:04;7.35;;;3.08;;
70444;SDS011;57902;49.638;11.070;2024-01-06T05:47:31;8.52;;;3.50;;
70444;SDS011;57902;49.638;11.070;2024-01-06T05:49:59;9.73;;;3.25;;
70444;SDS011;57902;49.638;11.070;2024-01-06T05:52:25;8.73;;;3.40;;
70444;SDS011;57902;49.638;11.070;2024-01-06T05:54:52;8.10;;;3.60;;
70444;SDS011;57902;49.638;11.070;2024-01-06T05:57:19;11.63;;;3.70;;
70444;SDS011;57902;49.638;11.070;2024-01-06T05:59:45;6.93;;;3.33;;
70444;SDS011;57902;49.638;11.070;2024-01-06T06:02:12;9.07;;;3.80;;
70444;SDS011;57902;49.638;11.070;2024-01-06T06:04:40;8.10;;;3.72;;
70444;SDS011;57902;49.638;11.070;2024-01-06T06:07:06;11.55;;;3.70;;
70444;SDS011;57902;49.638;11.070;2024-01-06T06:09:33;8.00;;;3.90;;
70444;SDS011;57902;49.638;11.070;2024-01-06T06:12:01;8.73;;;3.90;;
70444;SDS011;57902;49.638;11.070;2024-01-06T06:14:27;11.15;;;4.10;;
70444;SDS011;57902;49.638;11.070;2024-01-06T06:16:55;8.93;;;3.75;;
70444;SDS011;57902;49.638;11.070;2024-01-06T06:19:23;7.70;;;3.45;;
70444;SDS011;57902;49.638;11.070;2024-01-06T06:21:50;9.25;;;3.75;;
70444;SDS011;57902;49.638;11.070;2024-01-06T06:24:16;8.00;;;3.80;;
70444;SDS011;57902;49.638;11.070;2024-01-06T06:26:43;8.25;;;3.65;;
70444;SDS011;57902;49.638;11.070;2024-01-06T06:29:09;8.10;;;3.60;;
70444;SDS011;57902;49.638;11.070;2024-01-06T06:31:36;8.93;;;3.40;;
70444;SDS011;57902;49.638;11.070;2024-01-06T06:34:03;8.63;;;3.58;;
70444;SDS011;57902;49.638;11.070;2024-01-06T06:36:34;12.98;;;3.67;;
70444;SDS011;57902;49.638;11.070;2024-01-06T06:39:01;7.95;;;3.70;;
70444;SDS011;57902;49.638;11.070;2024-01-06T06:41:30;8.38;;;3.58;;
70444;SDS011;57902;49.638;11.070;2024-01-06T06:43:57;8.77;;;3.47;;
70444;SDS011;57902;49.638;11.070;2024-01-06T06:46:24;12.18;;;4.10;;
70444;SDS011;57902;49.638;11.070;2024-01-06T06:48:50;9.18;;;4.07;;
70444;SDS011;57902;49.638;11.070;2024-01-06T06:51:17;9.32;;;4.10;;
70444;SDS011;57902;49.638;11.070;2024-01-06T06:53:44;8.32;;;3.60;;
70444;SDS011;57902;49.638;11.070;2024-01-06T06:58:43;7.88;;;3.83;;
70444;SDS011;57902;49.638;11.070;2024-01-06T07:01:10;9.30;;;3.53;;
70444;SDS011;57902;49.638;11.070;2024-01-06T07:03:36;10.38;;;4.15;;
70444;SDS011;57902;49.638;11.070;2024-01-06T07:06:04;9.60;;;4.18;;
70444;SDS011;57902;49.638;11.070;2024-01-06T07:08:30;8.77;;;4.30;;
70444;SDS011;57902;49.638;11.070;2024-01-06T07:10:57;9.35;;;3.88;;
70444;SDS011;57902;49.638;11.070;2024-01-06T07:13:23;9.43;;;3.88;;
70444;SDS011;57902;49.638;11.070;2024-01-06T07:15:49;10.95;;;4.40;;
70444;SDS011;57902;49.638;11.070;2024-01-06T07:18:17;9.50;;;4.50;;
70444;SDS011;57902;49.638;11.070;2024-01-06T07:20:49;7.93;;;4.05;;
70444;SDS011;57902;49.638;11.070;2024-01-06T07:23:16;11.20;;;4.38;;
70444;SDS011;57902;49.638;11.070;2024-01-06T07:25:42;8.90;;;3.72;;
70444;SDS011;57902;49.638;11.070;2024-01-06T07:28:09;9.63;;;4.30;;
70444;SDS011;57902;49.638;11.070;2024-01-06T07:30:35;9.82;;;4.53;;
70444;SDS011;57902;49.638;11.070;2024-01-06T07:33:02;9.77;;;4.35;;
70444;SDS011;57902;49.638;11.070;2024-01-06T07:35:29;11.18;;;4.30;;
70444;SDS011;57902;49.638;11.070;2024-01-06T07:37:55;8.50;;;3.55;;
70444;SDS011;57902;49.638;11.070;2024-01-06T07:40:22;9.27;;;3.25;;
70444;SDS011;57902;49.638;11.070;2024-01-06T07:42:49;7.47;;;3.38;;
70444;SDS011;57902;49.638;11.070;2024-01-06T07:45:17;9.57;;;3.45;;
70444;SDS011;57902;49.638;11.070;2024-01-06T07:47:44;12.00;;;4.10;;
70444;SDS011;57902;49.638;11.070;2024-01-06T07:50:11;8.52;;;3.60;;
70444;SDS011;57902;49.638;11.070;2024-01-06T07:52:37;10.43;;;4.75;;
70444;SDS011;57902;49.638;11.070;2024-01-06T07:55:04;14.27;;;5.95;;
70444;SDS011;57902;49.638;11.070;2024-01-06T07:57:30;15.02;;;6.40;;
70444;SDS011;57902;49.638;11.070;2024-01-06T07:59:57;14.88;;;6.07;;
70444;SDS011;57902;49.638;11.070;2024-01-06T08:02:26;15.90;;;7.63;;
70444;SDS011;57902;49.638;11.070;2024-01-06T08:04:52;23.17;;;11.32;;
70444;SDS011;57902;49.638;11.070;2024-01-06T08:07:20;22.60;;;9.65;;
70444;SDS011;57902;49.638;11.070;2024-01-06T08:09:46;14.13;;;5.25;;
70444;SDS011;57902;49.638;11.070;2024-01-06T08:12:14;11.77;;;4.35;;
70444;SDS011;57902;49.638;11.070;2024-01-06T08:14:41;8.65;;;3.63;;
70444;SDS011;57902;49.638;11.070;2024-01-06T08:17:08;11.98;;;5.13;;
70444;SDS011;57902;49.638;11.070;2024-01-06T08:19:34;11.10;;;4.47;;
70444;SDS011;57902;49.638;11.070;2024-01-06T08:22:02;12.45;;;6.00;;
70444;SDS011;57902;49.638;11.070;2024-01-06T08:24:29;10.95;;;4.43;;
70444;SDS011;57902;49.638;11.070;2024-01-06T08:26:55;8.23;;;3.92;;
70444;SDS011;57902;49.638;11.070;2024-01-06T08:29:22;8.95;;;4.10;;
70444;SDS011;57902;49.638;11.070;2024-01-06T08:31:48;7.85;;;4.15;;
70444;SDS011;57902;49.638;11.070;2024-01-06T08:34:18;11.30;;;6.07;;
70444;SDS011;57902;49.638;11.070;2024-01-06T08:36:45;11.18;;;5.82;;
70444;SDS011;57902;49.638;11.070;2024-01-06T08:39:12;11.30;;;5.65;;
70444;SDS011;57902;49.638;11.070;2024-01-06T08:41:38;8.80;;;4.22;;
70444;SDS011;57902;49.638;11.070;2024-01-06T08:44:05;10.13;;;5.22;;
70444;SDS011;57902;49.638;11.070;2024-01-06T08:46:32;9.95;;;5.30;;
70444;SDS011;57902;49.638;11.070;2024-01-06T08:48:58;10.45;;;5.22;;
70444;SDS011;57902;49.638;11.070;2024-01-06T08:51:26;8.25;;;4.25;;
70444;SDS011;57902;49.638;11.070;2024-01-06T08:53:53;8.60;;;4.63;;
70444;SDS011;57902;49.638;11.070;2024-01-06T08:56:20;9.93;;;4.68;;
70444;SDS011;57902;49.638;11.070;2024-01-06T08:58:46;10.85;;;5.63;;
70444;SDS011;57902;49.638;11.070;2024-01-06T09:01:13;11.02;;;5.38;;
70444;SDS011;57902;49.638;11.070;2024-01-06T09:03:40;11.48;;;5.18;;
70444;SDS011;57902;49.638;11.070;2024-01-06T09:06:07;13.38;;;6.47;;
70444;SDS011;57902;49.638;11.070;2024-01-06T09:08:33;15.43;;;7.28;;
70444;SDS011;57902;49.638;11.070;2024-01-06T09:11:00;14.32;;;7.22;;
70444;SDS011;57902;49.638;11.070;2024-01-06T09:13:26;12.45;;;6.88;;
70444;SDS011;57902;49.638;11.070;2024-01-06T09:15:53;20.25;;;8.65;;
70444;SDS011;57902;49.638;11.070;2024-01-06T09:18:20;14.25;;;7.68;;
70444;SDS011;57902;49.638;11.070;2024-01-06T09:20:47;15.23;;;8.43;;
70444;SDS011;57902;49.638;11.070;2024-01-06T09:23:16;16.83;;;8.93;;
70444;SDS011;57902;49.638;11.070;2024-01-06T09:25:43;17.25;;;8.25;;
70444;SDS011;57902;49.638;11.070;2024-01-06T09:28:09;19.40;;;9.32;;
70444;SDS011;57902;49.638;11.070;2024-01-06T09:30:37;19.38;;;9.95;;
70444;SDS011;57902;49.638;11.070;2024-01-06T09:33:04;18.38;;;9.25;;
70444;SDS011;57902;49.638;11.070;2024-01-06T09:35:30;18.15;;;8.85;;
70444;SDS011;57902;49.638;11.070;2024-01-06T09:37:57;16.95;;;8.43;;
70444;SDS011;57902;49.638;11.070;2024-01-06T09:40:24;24.60;;;10.95;;
70444;SDS011;57902;49.638;11.070;2024-01-06T09:42:51;16.08;;;7.70;;
70444;SDS011;57902;49.638;11.070;2024-01-06T09:45:18;17.10;;;7.55;;
70444;SDS011;57902;49.638;11.070;2024-01-06T09:47:45;14.52;;;7.82;;
70444;SDS011;57902;49.638;11.070;2024-01-06T09:50:19;17.45;;;8.90;;
70444;SDS011;57902;49.638;11.070;2024-01-06T09:52:46;17.83;;;9.25;;
70444;SDS011;57902;49.638;11.070;2024-01-06T09:55:23;14.82;;;7.95;;
70444;SDS011;57902;49.638;11.070;2024-01-06T09:57:52;13.07;;;7.15;;
70444;SDS011;57902;49.638;11.070;2024-01-06T10:00:20;16.65;;;8.13;;
70444;SDS011;57902;49.638;11.070;2024-01-06T10:02:47;16.80;;;7.50;;
70444;SDS011;57902;49.638;11.070;2024-01-06T10:05:15;18.15;;;7.57;;
70444;SDS011;57902;49.638;11.070;2024-01-06T10:07:44;13.80;;;6.65;;
70444;SDS011;57902;49.638;11.070;2024-01-06T10:10:11;9.98;;;6.07;;
70444;SDS011;57902;49.638;11.070;2024-01-06T10:12:39;11.95;;;6.75;;
70444;SDS011;57902;49.638;11.070;2024-01-06T10:15:10;12.43;;;6.35;;
70444;SDS011;57902;49.638;11.070;2024-01-06T10:17:38;14.73;;;6.90;;
70444;SDS011;57902;49.638;11.070;2024-01-06T10:20:12;19.52;;;8.82;;
70444;SDS011;57902;49.638;11.070;2024-01-06T10:22:42;17.17;;;8.05;;
70444;SDS011;57902;49.638;11.070;2024-01-06T10:25:09;15.88;;;7.63;;
70444;SDS011;57902;49.638;11.070;2024-01-06T10:27:38;16.48;;;7.70;;
70444;SDS011;57902;49.638;11.070;2024-01-06T10:30:07;15.07;;;7.70;;
70444;SDS011;57902;49.638;11.070;2024-01-06T10:32:34;15.70;;;7.32;;
70444;SDS011;57902;49.638;11.070;2024-01-06T10:35:03;14.10;;;7.18;;
70444;SDS011;57902;49.638;11.070;2024-01-06T10:37:32;12.77;;;5.15;;
70444;SDS011;57902;49.638;11.070;2024-01-06T10:42:35;12.45;;;5.57;;
70444;SDS011;57902;49.638;11.070;2024-01-06T10:45:12;12.25;;;5.20;;
70444;SDS011;57902;49.638;11.070;2024-01-06T10:47:40;11.95;;;5.55;;
70444;SDS011;57902;49.638;11.070;2024-01-06T10:50:11;13.65;;;5.45;;
70444;SDS011;57902;49.638;11.070;2024-01-06T10:52:40;15.30;;;6.10;;
70444;SDS011;57902;49.638;11.070;2024-01-06T10:55:08;12.93;;;5.30;;
70444;SDS011;57902;49.638;11.070;2024-01-06T10:57:36;13.13;;;4.32;;
70444;SDS011;57902;49.638;11.070;2024-01-06T11:00:04;10.68;;;4.53;;
70444;SDS011;57902;49.638;11.070;2024-01-06T11:02:31;11.13;;;3.92;;
70444;SDS011;57902;49.638;11.070;2024-01-06T11:04:58;10.30;;;3.92;;
70444;SDS011;57902;49.638;11.070;2024-01-06T11:07:25;8.57;;;4.07;;
70444;SDS011;57902;49.638;11.070;2024-01-06T11:10:14;14.75;;;4.90;;
70444;SDS011;57902;49.638;11.070;2024-01-06T11:12:43;9.73;;;4.35;;
70444;SDS011;57902;49.638;11.070;2024-01-06T11:15:10;9.52;;;4.47;;
70444;SDS011;57902;49.638;11.070;2024-01-06T11:20:25;12.13;;;4.60;;
70444;SDS011;57902;49.638;11.070;2024-01-06T11:22:53;12.45;;;4.18;;
70444;SDS011;57902;49.638;11.070;2024-01-06T11:25:20;9.73;;;4.10;;
70444;SDS011;57902;49.638;11.070;2024-01-06T11:27:48;9.95;;;4.03;;
70444;SDS011;57902;49.638;11.070;2024-01-06T11:30:26;10.80;;;3.85;;
70444;SDS011;57902;49.638;11.070;2024-01-06T11:32:53;9.63;;;3.72;;
70444;SDS011;57902;49.638;11.070;2024-01-06T11:35:26;7.57;;;3.60;;
70444;SDS011;57902;49.638;11.070;2024-01-06T11:37:56;9.60;;;3.67;;
70444;SDS011;57902;49.638;11.070;2024-01-06T11:40:36;12.50;;;4.03;;
70444;SDS011;57902;49.638;11.070;2024-01-06T11:43:06;9.57;;;3.92;;
70444;SDS011;57902;49.638;11.070;2024-01-06T11:48:08;9.50;;;3.72;;
70444;SDS011;57902;49.638;11.070;2024-01-06T11:50:37;9.43;;;3.78;;
70444;SDS011;57902;49.638;11.070;2024-01-06T11:53:05;11.07;;;3.95;;
70444;SDS011;57902;49.638;11.070;2024-01-06T11:55:32;10.38;;;4.55;;
70444;SDS011;57902;49.638;11.070;2024-01-06T11:58:01;9.40;;;3.90;;
70444;SDS011;57902;49.638;11.070;2024-01-06T12:00:32;11.10;;;4.32;;
70444;SDS011;57902;49.638;11.070;2024-01-06T12:03:00;11.70;;;3.75;;
70444;SDS011;57902;49.638;11.070;2024-01-06T12:05:28;10.68;;;4.15;;
70444;SDS011;57902;49.638;11.070;2024-01-06T12:07:55;11.48;;;4.10;;
70444;SDS011;57902;49.638;11.070;2024-01-06T12:10:24;8.70;;;4.30;;
70444;SDS011;57902;49.638;11.070;2024-01-06T12:12:55;10.48;;;4.00;;
70444;SDS011;57902;49.638;11.070;2024-01-06T12:15:26;11.05;;;4.10;;
70444;SDS011;57902;49.638;11.070;2024-01-06T12:17:54;10.65;;;4.20;;
70444;SDS011;57902;49.638;11.070;2024-01-06T12:20:24;9.05;;;4.15;;
70444;SDS011;57902;49.638;11.070;2024-01-06T12:22:51;9.40;;;4.07;;
70444;SDS011;57902;49.638;11.070;2024-01-06T12:25:22;9.52;;;4.32;;
70444;SDS011;57902;49.638;11.070;2024-01-06T12:27:49;13.82;;;3.97;;
70444;SDS011;57902;49.638;11.070;2024-01-06T12:30:17;9.43;;;3.95;;
70444;SDS011;57902;49.638;11.070;2024-01-06T12:32:46;9.75;;;4.38;;
70444;SDS011;57902;49.638;11.070;2024-01-06T12:35:15;10.43;;;3.72;;
70444;SDS011;57902;49.638;11.070;2024-01-06T12:37:43;11.32;;;3.92;;
70444;SDS011;57902;49.638;11.070;2024-01-06T12:40:11;9.45;;;4.03;;
70444;SDS011;57902;49.638;11.070;2024-01-06T12:42:39;12.30;;;4.18;;
70444;SDS011;57902;49.638;11.070;2024-01-06T12:45:06;11.40;;;4.18;;
70444;SDS011;57902;49.638;11.070;2024-01-06T12:47:33;7.00;;;3.45;;
70444;SDS011;57902;49.638;11.070;2024-01-06T12:50:00;10.65;;;4.85;;
70444;SDS011;57902;49.638;11.070;2024-01-06T12:52:27;9.23;;;3.92;;
70444;SDS011;57902;49.638;11.070;2024-01-06T12:54:53;9.85;;;4.22;;
70444;SDS011;57902;49.638;11.070;2024-01-06T12:57:20;11.63;;;3.72;;
70444;SDS011;57902;49.638;11.070;2024-01-06T12:59:47;8.38;;;3.30;;
70444;SDS011;57902;49.638;11.070;2024-01-06T13:02:13;8.27;;;3.70;;
70444;SDS011;57902;49.638;11.070;2024-01-06T13:04:40;12.05;;;4.05;;
70444;SDS011;57902;49.638;11.070;2024-01-06T13:07:06;11.27;;;4.10;;
70444;SDS011;57902;49.638;11.070;2024-01-06T13:09:33;11.70;;;3.92;;
70444;SDS011;57902;49.638;11.070;2024-01-06T13:11:59;8.65;;;4.03;;
70444;SDS011;57902;49.638;11.070;2024-01-06T13:14:27;8.77;;;3.83;;
70444;SDS011;57902;49.638;11.070;2024-01-06T13:16:55;9.52;;;3.80;;
70444;SDS011;57902;49.638;11.070;2024-01-06T13:19:22;10.23;;;3.83;;
70444;SDS011;57902;49.638;11.070;2024-01-06T13:21:49;8.98;;;3.90;;
70444;SDS011;57902;49.638;11.070;2024-01-06T13:24:16;8.93;;;3.42;;
70444;SDS011;57902;49.638;11.070;2024-01-06T13:26:43;8.82;;;3.50;;
70444;SDS011;57902;49.638;11.070;2024-01-06T13:29:09;10.75;;;4.20;;
70444;SDS011;57902;49.638;11.070;2024-01-06T13:31:36;9.18;;;4.25;;
70444;SDS011;57902;49.638;11.070;2024-01-06T13:34:03;9.00;;;4.00;;
70444;SDS011;57902;49.638;11.070;2024-01-06T13:36:31;16.17;;;5.00;;
70444;SDS011;57902;49.638;11.070;2024-01-06T13:38:57;12.35;;;4.80;;
70444;SDS011;57902;49.638;11.070;2024-01-06T13:41:26;11.88;;;4.20;;
70444;SDS011;57902;49.638;11.070;2024-01-06T13:43:53;15.07;;;5.47;;
70444;SDS011;57902;49.638;11.070;2024-01-06T13:46:20;10.65;;;4.28;;
70444;SDS011;57902;49.638;11.070;2024-01-06T13:48:47;9.75;;;4.05;;
70444;SDS011;57902;49.638;11.070;2024-01-06T13:51:14;9.07;;;4.28;;
70444;SDS011;57902;49.638;11.070;2024-01-06T13:53:40;10.77;;;4.60;;
70444;SDS011;57902;49.638;11.070;2024-01-06T13:56:07;12.55;;;4.30;;
70444;SDS011;57902;49.638;11.070;2024-01-06T13:58:33;7.72;;;3.47;;
70444;SDS011;57902;49.638;11.070;2024-01-06T14:01:02;10.80;;;3.80;;
70444;SDS011;57902;49.638;11.070;2024-01-06T14:03:29;12.98;;;4.65;;
70444;SDS011;57902;49.638;11.070;2024-01-06T14:05:56;11.77;;;4.50;;
70444;SDS011;57902;49.638;11.070;2024-01-06T14:08:22;19.40;;;8.05;;
70444;SDS011;57902;49.638;11.070;2024-01-06T14:10:50;9.45;;;4.32;;
70444;SDS011;57902;49.638;11.070;2024-01-06T14:13:17;12.70;;;5.07;;
70444;SDS011;57902;49.638;11.070;2024-01-06T14:15:43;8.23;;;3.58;;
70444;SDS011;57902;49.638;11.070;2024-01-06T14:18:10;12.48;;;4.07;;
70444;SDS011;57902;49.638;11.070;2024-01-06T14:20:38;9.95;;;4.05;;
70444;SDS011;57902;49.638;11.070;2024-01-06T14:23:06;11.68;;;4.55;;
70444;SDS011;57902;49.638;11.070;2024-01-06T14:25:33;7.40;;;3.63;;
70444;SDS011;57902;49.638;11.070;2024-01-06T14:27:59;8.75;;;3.80;;
70444;SDS011;57902;49.638;11.070;2024-01-06T14:30:26;15.80;;;5.43;;
70444;SDS011;57902;49.638;11.070;2024-01-06T14:32:53;11.50;;;4.55;;
70444;SDS011;57902;49.638;11.070;2024-01-06T14:35:20;11.05;;;4.55;;
70444;SDS011;57902;49.638;11.070;2024-01-06T14:37:47;9.80;;;4.53;;
70444;SDS011;57902;49.638;11.070;2024-01-06T14:40:13;14.30;;;5.03;;